sensor_id;sensor_type;location;lat;lon;timestamp;P1;durP1;ratioP1;P2;durP2;ratioP2
30519;SDS011;17300;50.374;8.006;2023-07-31T00:02:14;1.83;;;1.40;;
30519;SDS011;17300;50.374;8.006;2023-07-31T00:04:40;10.97;;;2.83;;
30519;SDS011;17300;50.374;8.006;2023-07-31T00:07:07;4.77;;;1.60;;
30519;SDS011;17300;50.374;8.006;2023-07-31T00:09:34;5.07;;;2.13;;
30519;SDS011;17300;50.374;8.006;2023-07-31T00:12:00;2.10;;;1.63;;
30519;SDS011;17300;50.374;8.006;2023-07-31T00:14:27;1.60;;;1.20;;
30519;SDS011;17300;50.374;8.006;2023-07-31T00:16:54;6.97;;;1.70;;
30519;SDS011;17300;50.374;8.006;2023-07-31T00:19:22;2.43;;;1.33;;
30519;SDS011;17300;50.374;8.006;2023-07-31T00:21:49;2.83;;;1.67;;
30519;SDS011;17300;50.374;8.006;2023-07-31T00:24:15;2.67;;;1.43;;
30519;SDS011;17300;50.374;8.006;2023-07-31T00:26:42;4.93;;;1.50;;
30519;SDS011;17300;50.374;8.006;2023-07-31T00:29:09;2.20;;;1.43;;
30519;SDS011;17300;50.374;8.006;2023-07-31T00:31:35;2.07;;;1.20;;
30519;SDS011;17300;50.374;8.006;2023-07-31T00:34:02;1.73;;;1.37;;
30519;SDS011;17300;50.374;8.006;2023-07-31T00:36:30;3.17;;;1.60;;
30519;SDS011;17300;50.374;8.006;2023-07-31T00:38:56;2.17;;;1.60;;
30519;SDS011;17300;50.374;8.006;2023-07-31T00:41:23;1.60;;;1.50;;
30519;SDS011;17300;50.374;8.006;2023-07-31T00:43:50;2.03;;;1.50;;
30519;SDS011;17300;50.374;8.006;2023-07-31T00:46:16;1.43;;;1.30;;
30519;SDS011;17300;50.374;8.006;2023-07-31T00:48:43;1.80;;;1.37;;
30519;SDS011;17300;50.374;8.006;2023-07-31T00:51:10;1.93;;;1.40;;
30519;SDS011;17300;50.374;8.006;2023-07-31T00:53:38;2.20;;;1.30;;
30519;SDS011;17300;50.374;8.006;2023-07-31T00:56:06;2.40;;;1.50;;
30519;SDS011;17300;50.374;8.006;2023-07-31T00:58:32;2.97;;;1.40;;
30519;SDS011;17300;50.374;8.006;2023-07-31T01:00:59;1.70;;;1.30;;
30519;SDS011;17300;50.374;8.006;2023-07-31T01:03:26;2.57;;;1.40;;
30519;SDS011;17300;50.374;8.006;2023-07-31T01:05:55;2.47;;;1.40;;
30519;SDS011;17300;50.374;8.006;2023-07-31T01:08:32;2.53;;;1.37;;
30519;SDS011;17300;50.374;8.006;2023-07-31T01:11:07;2.13;;;1.50;;
30519;SDS011;17300;50.374;8.006;2023-07-31T01:13:40;1.43;;;1.30;;
30519;SDS011;17300;50.374;8.006;2023-07-31T01:16:08;1.63;;;1.40;;
30519;SDS011;17300;50.374;8.006;2023-07-31T01:18:34;3.03;;;1.60;;
30519;SDS011;17300;50.374;8.006;2023-07-31T01:21:03;2.30;;;1.37;;
30519;SDS011;17300;50.374;8.006;2023-07-31T01:26:36;1.77;;;1.53;;
30519;SDS011;17300;50.374;8.006;2023-07-31T01:29:07;1.63;;;1.50;;
30519;SDS011;17300;50.374;8.006;2023-07-31T01:31:40;1.23;;;1.10;;
30519;SDS011;17300;50.374;8.006;2023-07-31T01:34:11;2.07;;;1.60;;
30519;SDS011;17300;50.374;8.006;2023-07-31T01:36:40;1.50;;;1.30;;
30519;SDS011;17300;50.374;8.006;2023-07-31T01:39:06;1.67;;;1.50;;
30519;SDS011;17300;50.374;8.006;2023-07-31T01:41:34;2.30;;;1.70;;
30519;SDS011;17300;50.374;8.006;2023-07-31T01:44:01;2.47;;;1.80;;
30519;SDS011;17300;50.374;8.006;2023-07-31T01:46:28;1.57;;;1.37;;
30519;SDS011;17300;50.374;8.006;2023-07-31T01:48:54;1.60;;;1.50;;
30519;SDS011;17300;50.374;8.006;2023-07-31T01:51:21;1.63;;;1.40;;
30519;SDS011;17300;50.374;8.006;2023-07-31T01:53:48;1.83;;;1.40;;
30519;SDS011;17300;50.374;8.006;2023-07-31T01:56:14;2.90;;;1.53;;
30519;SDS011;17300;50.374;8.006;2023-07-31T01:58:42;3.43;;;1.50;;
30519;SDS011;17300;50.374;8.006;2023-07-31T02:01:09;2.17;;;1.50;;
30519;SDS011;17300;50.374;8.006;2023-07-31T02:03:36;2.30;;;1.60;;
30519;SDS011;17300;50.374;8.006;2023-07-31T02:06:03;2.00;;;1.47;;
30519;SDS011;17300;50.374;8.006;2023-07-31T02:08:29;1.93;;;1.70;;
30519;SDS011;17300;50.374;8.006;2023-07-31T02:10:56;1.40;;;1.30;;
30519;SDS011;17300;50.374;8.006;2023-07-31T02:13:22;5.43;;;1.57;;
30519;SDS011;17300;50.374;8.006;2023-07-31T02:15:50;2.00;;;1.53;;
30519;SDS011;17300;50.374;8.006;2023-07-31T02:18:17;3.67;;;1.67;;
30519;SDS011;17300;50.374;8.006;2023-07-31T02:20:48;3.63;;;1.97;;
30519;SDS011;17300;50.374;8.006;2023-07-31T02:23:16;1.77;;;1.60;;
30519;SDS011;17300;50.374;8.006;2023-07-31T02:25:42;2.60;;;1.53;;
30519;SDS011;17300;50.374;8.006;2023-07-31T02:28:09;2.63;;;1.70;;
30519;SDS011;17300;50.374;8.006;2023-07-31T02:30:36;2.17;;;1.70;;
30519;SDS011;17300;50.374;8.006;2023-07-31T02:33:04;1.67;;;1.57;;
30519;SDS011;17300;50.374;8.006;2023-07-31T02:35:31;2.23;;;1.60;;
30519;SDS011;17300;50.374;8.006;2023-07-31T02:37:58;2.17;;;1.70;;
30519;SDS011;17300;50.374;8.006;2023-07-31T02:40:24;1.70;;;1.53;;
30519;SDS011;17300;50.374;8.006;2023-07-31T02:42:51;1.67;;;1.50;;
30519;SDS011;17300;50.374;8.006;2023-07-31T02:45:18;1.30;;;1.20;;
30519;SDS011;17300;50.374;8.006;2023-07-31T02:47:44;3.57;;;1.70;;
30519;SDS011;17300;50.374;8.006;2023-07-31T02:50:12;2.53;;;1.87;;
30519;SDS011;17300;50.374;8.006;2023-07-31T02:52:39;1.50;;;1.37;;
30519;SDS011;17300;50.374;8.006;2023-07-31T02:55:06;3.13;;;1.73;;
30519;SDS011;17300;50.374;8.006;2023-07-31T02:57:33;3.70;;;1.90;;
30519;SDS011;17300;50.374;8.006;2023-07-31T02:59:59;1.67;;;1.53;;
30519;SDS011;17300;50.374;8.006;2023-07-31T03:02:27;1.67;;;1.53;;
30519;SDS011;17300;50.374;8.006;2023-07-31T03:04:54;3.50;;;1.90;;
30519;SDS011;17300;50.374;8.006;2023-07-31T03:07:22;3.87;;;1.80;;
30519;SDS011;17300;50.374;8.006;2023-07-31T03:09:48;2.33;;;1.70;;
30519;SDS011;17300;50.374;8.006;2023-07-31T03:12:15;1.97;;;1.40;;
30519;SDS011;17300;50.374;8.006;2023-07-31T03:14:41;4.67;;;2.00;;
30519;SDS011;17300;50.374;8.006;2023-07-31T03:17:08;2.97;;;1.70;;
30519;SDS011;17300;50.374;8.006;2023-07-31T03:19:35;2.53;;;1.53;;
30519;SDS011;17300;50.374;8.006;2023-07-31T03:22:01;3.73;;;1.70;;
30519;SDS011;17300;50.374;8.006;2023-07-31T03:24:30;2.27;;;1.80;;
30519;SDS011;17300;50.374;8.006;2023-07-31T03:26:56;1.93;;;1.43;;
30519;SDS011;17300;50.374;8.006;2023-07-31T03:29:23;1.87;;;1.60;;
30519;SDS011;17300;50.374;8.006;2023-07-31T03:31:49;2.23;;;1.80;;
30519;SDS011;17300;50.374;8.006;2023-07-31T03:34:16;1.60;;;1.50;;
30519;SDS011;17300;50.374;8.006;2023-07-31T03:36:43;2.47;;;1.60;;
30519;SDS011;17300;50.374;8.006;2023-07-31T03:39:10;1.53;;;1.40;;
30519;SDS011;17300;50.374;8.006;2023-07-31T03:41:38;1.87;;;1.50;;
30519;SDS011;17300;50.374;8.006;2023-07-31T03:44:04;1.73;;;1.63;;
30519;SDS011;17300;50.374;8.006;2023-07-31T03:46:31;2.27;;;1.60;;
30519;SDS011;17300;50.374;8.006;2023-07-31T03:48:58;1.93;;;1.70;;
30519;SDS011;17300;50.374;8.006;2023-07-31T03:51:25;2.17;;;1.73;;
30519;SDS011;17300;50.374;8.006;2023-07-31T03:53:52;1.83;;;1.47;;
30519;SDS011;17300;50.374;8.006;2023-07-31T03:56:18;1.60;;;1.50;;
30519;SDS011;17300;50.374;8.006;2023-07-31T03:58:46;1.73;;;1.53;;
30519;SDS011;17300;50.374;8.006;2023-07-31T04:01:13;2.50;;;1.60;;
30519;SDS011;17300;50.374;8.006;2023-07-31T04:03:39;2.00;;;1.80;;
30519;SDS011;17300;50.374;8.006;2023-07-31T04:06:06;1.50;;;1.40;;
30519;SDS011;17300;50.374;8.006;2023-07-31T04:08:33;1.50;;;1.40;;
30519;SDS011;17300;50.374;8.006;2023-07-31T04:11:00;1.50;;;1.40;;
30519;SDS011;17300;50.374;8.006;2023-07-31T04:13:26;1.50;;;1.40;;
30519;SDS011;17300;50.374;8.006;2023-07-31T04:15:56;1.90;;;1.70;;
30519;SDS011;17300;50.374;8.006;2023-07-31T04:18:24;2.10;;;1.53;;
30519;SDS011;17300;50.374;8.006;2023-07-31T04:20:50;1.73;;;1.63;;
30519;SDS011;17300;50.374;8.006;2023-07-31T04:23:17;2.43;;;1.50;;
30519;SDS011;17300;50.374;8.006;2023-07-31T04:25:44;1.73;;;1.50;;
30519;SDS011;17300;50.374;8.006;2023-07-31T04:28:10;1.73;;;1.47;;
30519;SDS011;17300;50.374;8.006;2023-07-31T04:30:37;2.13;;;1.60;;
30519;SDS011;17300;50.374;8.006;2023-07-31T04:33:06;1.70;;;1.50;;
30519;SDS011;17300;50.374;8.006;2023-07-31T04:35:32;1.53;;;1.40;;
30519;SDS011;17300;50.374;8.006;2023-07-31T04:37:59;2.23;;;1.60;;
30519;SDS011;17300;50.374;8.006;2023-07-31T04:40:26;2.13;;;1.70;;
30519;SDS011;17300;50.374;8.006;2023-07-31T04:42:52;2.10;;;1.40;;
30519;SDS011;17300;50.374;8.006;2023-07-31T04:45:19;1.67;;;1.50;;
30519;SDS011;17300;50.374;8.006;2023-07-31T04:47:46;1.40;;;1.30;;
30519;SDS011;17300;50.374;8.006;2023-07-31T04:50:14;1.67;;;1.40;;
30519;SDS011;17300;50.374;8.006;2023-07-31T04:52:40;2.10;;;1.53;;
30519;SDS011;17300;50.374;8.006;2023-07-31T04:55:07;2.53;;;1.47;;
30519;SDS011;17300;50.374;8.006;2023-07-31T04:57:34;1.87;;;1.40;;
30519;SDS011;17300;50.374;8.006;2023-07-31T05:00:01;1.70;;;1.60;;
30519;SDS011;17300;50.374;8.006;2023-07-31T05:02:28;1.50;;;1.40;;
30519;SDS011;17300;50.374;8.006;2023-07-31T05:04:55;1.93;;;1.60;;
30519;SDS011;17300;50.374;8.006;2023-07-31T05:07:23;1.63;;;1.40;;
30519;SDS011;17300;50.374;8.006;2023-07-31T05:09:50;1.70;;;1.40;;
30519;SDS011;17300;50.374;8.006;2023-07-31T05:12:17;1.33;;;1.23;;
30519;SDS011;17300;50.374;8.006;2023-07-31T05:14:43;1.40;;;1.30;;
30519;SDS011;17300;50.374;8.006;2023-07-31T05:17:10;2.00;;;1.50;;
30519;SDS011;17300;50.374;8.006;2023-07-31T05:19:37;1.50;;;1.40;;
30519;SDS011;17300;50.374;8.006;2023-07-31T05:22:04;1.77;;;1.37;;
30519;SDS011;17300;50.374;8.006;2023-07-31T05:24:32;1.60;;;1.50;;
30519;SDS011;17300;50.374;8.006;2023-07-31T05:26:59;1.60;;;1.50;;
30519;SDS011;17300;50.374;8.006;2023-07-31T05:29:25;2.00;;;1.80;;
30519;SDS011;17300;50.374;8.006;2023-07-31T05:31:52;1.57;;;1.47;;
30519;SDS011;17300;50.374;8.006;2023-07-31T05:34:19;1.33;;;1.23;;
30519;SDS011;17300;50.374;8.006;2023-07-31T05:36:45;2.00;;;1.60;;
30519;SDS011;17300;50.374;8.006;2023-07-31T05:39:12;1.60;;;1.50;;
30519;SDS011;17300;50.374;8.006;2023-07-31T05:41:40;1.50;;;1.40;;
30519;SDS011;17300;50.374;8.006;2023-07-31T05:44:07;2.53;;;1.50;;
30519;SDS011;17300;50.374;8.006;2023-07-31T05:46:33;2.37;;;1.20;;
30519;SDS011;17300;50.374;8.006;2023-07-31T05:49:00;2.00;;;1.43;;
30519;SDS011;17300;50.374;8.006;2023-07-31T05:51:27;1.80;;;1.70;;
30519;SDS011;17300;50.374;8.006;2023-07-31T05:53:53;1.93;;;1.73;;
30519;SDS011;17300;50.374;8.006;2023-07-31T05:56:20;1.70;;;1.60;;
30519;SDS011;17300;50.374;8.006;2023-07-31T05:58:48;1.67;;;1.53;;
30519;SDS011;17300;50.374;8.006;2023-07-31T06:01:15;2.00;;;1.70;;
30519;SDS011;17300;50.374;8.006;2023-07-31T06:03:42;2.00;;;1.80;;
30519;SDS011;17300;50.374;8.006;2023-07-31T06:06:09;1.77;;;1.50;;
30519;SDS011;17300;50.374;8.006;2023-07-31T06:08:36;1.77;;;1.60;;
30519;SDS011;17300;50.374;8.006;2023-07-31T06:11:02;2.00;;;1.70;;
30519;SDS011;17300;50.374;8.006;2023-07-31T06:13:29;2.27;;;1.60;;
30519;SDS011;17300;50.374;8.006;2023-07-31T06:15:57;2.00;;;1.80;;
30519;SDS011;17300;50.374;8.006;2023-07-31T06:18:24;2.03;;;1.60;;
30519;SDS011;17300;50.374;8.006;2023-07-31T06:20:51;1.77;;;1.37;;
30519;SDS011;17300;50.374;8.006;2023-07-31T06:23:18;1.60;;;1.50;;
30519;SDS011;17300;50.374;8.006;2023-07-31T06:25:45;3.33;;;1.83;;
30519;SDS011;17300;50.374;8.006;2023-07-31T06:28:12;3.00;;;1.87;;
30519;SDS011;17300;50.374;8.006;2023-07-31T06:30:38;1.90;;;1.60;;
30519;SDS011;17300;50.374;8.006;2023-07-31T06:33:07;2.00;;;1.77;;
30519;SDS011;17300;50.374;8.006;2023-07-31T06:35:34;1.83;;;1.60;;
30519;SDS011;17300;50.374;8.006;2023-07-31T06:38:00;2.75;;;1.52;;
30519;SDS011;17300;50.374;8.006;2023-07-31T06:40:27;2.15;;;1.83;;
30519;SDS011;17300;50.374;8.006;2023-07-31T06:42:54;2.00;;;1.60;;
30519;SDS011;17300;50.374;8.006;2023-07-31T06:45:21;1.77;;;1.67;;
30519;SDS011;17300;50.374;8.006;2023-07-31T06:47:47;2.55;;;1.75;;
30519;SDS011;17300;50.374;8.006;2023-07-31T06:50:16;1.92;;;1.70;;
30519;SDS011;17300;50.374;8.006;2023-07-31T06:52:42;2.42;;;1.85;;
30519;SDS011;17300;50.374;8.006;2023-07-31T06:55:16;2.63;;;1.67;;
30519;SDS011;17300;50.374;8.006;2023-07-31T06:57:44;2.25;;;1.90;;
30519;SDS011;17300;50.374;8.006;2023-07-31T07:00:11;3.47;;;2.10;;
30519;SDS011;17300;50.374;8.006;2023-07-31T07:02:38;2.28;;;1.67;;
30519;SDS011;17300;50.374;8.006;2023-07-31T07:05:05;3.03;;;1.98;;
30519;SDS011;17300;50.374;8.006;2023-07-31T07:07:34;2.53;;;2.00;;
30519;SDS011;17300;50.374;8.006;2023-07-31T07:10:02;2.03;;;1.83;;
30519;SDS011;17300;50.374;8.006;2023-07-31T07:12:30;2.63;;;1.85;;
30519;SDS011;17300;50.374;8.006;2023-07-31T07:14:57;2.42;;;1.90;;
30519;SDS011;17300;50.374;8.006;2023-07-31T07:17:24;3.83;;;2.03;;
30519;SDS011;17300;50.374;8.006;2023-07-31T07:19:51;2.90;;;1.88;;
30519;SDS011;17300;50.374;8.006;2023-07-31T07:22:17;2.67;;;2.13;;
30519;SDS011;17300;50.374;8.006;2023-07-31T07:24:45;2.60;;;1.80;;
30519;SDS011;17300;50.374;8.006;2023-07-31T07:27:12;2.30;;;1.98;;
30519;SDS011;17300;50.374;8.006;2023-07-31T07:29:39;2.88;;;2.17;;
30519;SDS011;17300;50.374;8.006;2023-07-31T07:32:06;2.60;;;1.90;;
30519;SDS011;17300;50.374;8.006;2023-07-31T07:34:34;3.67;;;1.85;;
30519;SDS011;17300;50.374;8.006;2023-07-31T07:37:00;2.20;;;2.00;;
30519;SDS011;17300;50.374;8.006;2023-07-31T07:39:27;2.03;;;1.52;;
30519;SDS011;17300;50.374;8.006;2023-07-31T07:41:55;2.63;;;2.10;;
30519;SDS011;17300;50.374;8.006;2023-07-31T07:44:21;2.13;;;1.90;;
30519;SDS011;17300;50.374;8.006;2023-07-31T07:46:48;2.25;;;1.80;;
30519;SDS011;17300;50.374;8.006;2023-07-31T07:49:15;3.40;;;2.05;;
30519;SDS011;17300;50.374;8.006;2023-07-31T07:51:41;2.65;;;1.88;;
30519;SDS011;17300;50.374;8.006;2023-07-31T07:54:08;2.22;;;1.90;;
30519;SDS011;17300;50.374;8.006;2023-07-31T07:56:34;2.47;;;2.10;;
30519;SDS011;17300;50.374;8.006;2023-07-31T07:59:03;2.92;;;2.10;;
30519;SDS011;17300;50.374;8.006;2023-07-31T08:01:29;2.20;;;2.00;;
30519;SDS011;17300;50.374;8.006;2023-07-31T08:03:56;2.03;;;1.83;;
30519;SDS011;17300;50.374;8.006;2023-07-31T08:06:23;2.38;;;1.92;;
30519;SDS011;17300;50.374;8.006;2023-07-31T08:08:50;3.25;;;2.10;;
30519;SDS011;17300;50.374;8.006;2023-07-31T08:11:17;2.00;;;1.70;;
30519;SDS011;17300;50.374;8.006;2023-07-31T08:13:43;2.38;;;2.08;;
30519;SDS011;17300;50.374;8.006;2023-07-31T08:16:11;2.75;;;1.92;;
30519;SDS011;17300;50.374;8.006;2023-07-31T08:18:38;2.50;;;2.10;;
30519;SDS011;17300;50.374;8.006;2023-07-31T08:21:05;3.83;;;2.10;;
30519;SDS011;17300;50.374;8.006;2023-07-31T08:23:32;3.35;;;2.03;;
30519;SDS011;17300;50.374;8.006;2023-07-31T08:25:59;2.83;;;1.75;;
30519;SDS011;17300;50.374;8.006;2023-07-31T08:28:25;3.13;;;1.92;;
30519;SDS011;17300;50.374;8.006;2023-07-31T08:30:52;2.20;;;2.00;;
30519;SDS011;17300;50.374;8.006;2023-07-31T08:33:20;2.88;;;1.80;;
30519;SDS011;17300;50.374;8.006;2023-07-31T08:35:46;2.38;;;1.90;;
30519;SDS011;17300;50.374;8.006;2023-07-31T08:38:13;2.35;;;2.00;;
30519;SDS011;17300;50.374;8.006;2023-07-31T08:40:40;2.95;;;1.90;;
30519;SDS011;17300;50.374;8.006;2023-07-31T08:43:08;2.35;;;2.03;;
30519;SDS011;17300;50.374;8.006;2023-07-31T08:45:35;2.20;;;1.92;;
30519;SDS011;17300;50.374;8.006;2023-07-31T08:48:02;2.80;;;2.30;;
30519;SDS011;17300;50.374;8.006;2023-07-31T08:50:31;2.40;;;2.13;;
30519;SDS011;17300;50.374;8.006;2023-07-31T08:52:58;2.45;;;2.10;;
30519;SDS011;17300;50.374;8.006;2023-07-31T08:55:25;3.38;;;2.15;;
30519;SDS011;17300;50.374;8.006;2023-07-31T08:57:53;3.90;;;2.25;;
30519;SDS011;17300;50.374;8.006;2023-07-31T09:00:21;2.20;;;2.00;;
30519;SDS011;17300;50.374;8.006;2023-07-31T09:02:52;2.40;;;2.08;;
30519;SDS011;17300;50.374;8.006;2023-07-31T09:05:23;2.72;;;2.10;;
30519;SDS011;17300;50.374;8.006;2023-07-31T09:07:54;2.72;;;2.08;;
30519;SDS011;17300;50.374;8.006;2023-07-31T09:10:22;2.83;;;2.20;;
30519;SDS011;17300;50.374;8.006;2023-07-31T09:12:50;2.72;;;1.90;;
30519;SDS011;17300;50.374;8.006;2023-07-31T09:15:18;3.10;;;2.00;;
30519;SDS011;17300;50.374;8.006;2023-07-31T09:17:45;5.57;;;2.30;;
30519;SDS011;17300;50.374;8.006;2023-07-31T09:20:15;3.53;;;2.20;;
30519;SDS011;17300;50.374;8.006;2023-07-31T09:22:42;3.15;;;2.45;;
30519;SDS011;17300;50.374;8.006;2023-07-31T09:25:18;2.78;;;2.30;;
30519;SDS011;17300;50.374;8.006;2023-07-31T09:27:46;2.80;;;2.17;;
30519;SDS011;17300;50.374;8.006;2023-07-31T09:30:14;2.70;;;2.22;;
30519;SDS011;17300;50.374;8.006;2023-07-31T09:32:40;2.70;;;2.15;;
30519;SDS011;17300;50.374;8.006;2023-07-31T09:35:18;2.25;;;1.92;;
30519;SDS011;17300;50.374;8.006;2023-07-31T09:37:49;2.17;;;1.85;;
30519;SDS011;17300;50.374;8.006;2023-07-31T09:40:31;2.92;;;2.05;;
30519;SDS011;17300;50.374;8.006;2023-07-31T09:42:59;2.33;;;2.00;;
30519;SDS011;17300;50.374;8.006;2023-07-31T09:45:27;2.67;;;2.35;;
30519;SDS011;17300;50.374;8.006;2023-07-31T09:47:54;2.60;;;2.20;;
30519;SDS011;17300;50.374;8.006;2023-07-31T09:50:21;2.92;;;2.40;;
30519;SDS011;17300;50.374;8.006;2023-07-31T09:52:49;2.75;;;2.55;;
30519;SDS011;17300;50.374;8.006;2023-07-31T09:55:17;2.40;;;2.20;;
30519;SDS011;17300;50.374;8.006;2023-07-31T09:57:46;3.00;;;2.70;;
30519;SDS011;17300;50.374;8.006;2023-07-31T10:00:14;2.55;;;2.35;;
30519;SDS011;17300;50.374;8.006;2023-07-31T10:02:46;3.25;;;2.70;;
30519;SDS011;17300;50.374;8.006;2023-07-31T10:05:14;2.80;;;2.38;;
30519;SDS011;17300;50.374;8.006;2023-07-31T10:07:42;3.45;;;2.83;;
30519;SDS011;17300;50.374;8.006;2023-07-31T10:10:15;2.75;;;2.50;;
30519;SDS011;17300;50.374;8.006;2023-07-31T10:12:42;3.30;;;2.65;;
30519;SDS011;17300;50.374;8.006;2023-07-31T10:15:12;3.30;;;2.60;;
30519;SDS011;17300;50.374;8.006;2023-07-31T10:17:40;2.85;;;2.47;;
30519;SDS011;17300;50.374;8.006;2023-07-31T10:20:08;3.40;;;2.47;;
30519;SDS011;17300;50.374;8.006;2023-07-31T10:22:35;3.72;;;2.70;;
30519;SDS011;17300;50.374;8.006;2023-07-31T10:25:03;3.15;;;2.47;;
30519;SDS011;17300;50.374;8.006;2023-07-31T10:27:30;3.88;;;3.25;;
30519;SDS011;17300;50.374;8.006;2023-07-31T10:29:57;3.75;;;2.70;;
30519;SDS011;17300;50.374;8.006;2023-07-31T10:32:30;2.60;;;2.40;;
30519;SDS011;17300;50.374;8.006;2023-07-31T10:34:57;2.28;;;2.00;;
30519;SDS011;17300;50.374;8.006;2023-07-31T10:37:25;2.25;;;2.05;;
30519;SDS011;17300;50.374;8.006;2023-07-31T10:39:56;2.55;;;2.35;;
30519;SDS011;17300;50.374;8.006;2023-07-31T10:42:29;2.45;;;2.25;;
30519;SDS011;17300;50.374;8.006;2023-07-31T10:44:57;2.45;;;2.15;;
30519;SDS011;17300;50.374;8.006;2023-07-31T10:47:24;2.28;;;2.08;;
30519;SDS011;17300;50.374;8.006;2023-07-31T10:49:53;3.70;;;2.30;;
30519;SDS011;17300;50.374;8.006;2023-07-31T10:52:37;2.60;;;2.08;;
30519;SDS011;17300;50.374;8.006;2023-07-31T10:55:14;2.35;;;2.15;;
30519;SDS011;17300;50.374;8.006;2023-07-31T10:57:44;2.97;;;2.40;;
30519;SDS011;17300;50.374;8.006;2023-07-31T11:00:18;2.90;;;2.03;;
30519;SDS011;17300;50.374;8.006;2023-07-31T11:02:55;2.17;;;1.98;;
30519;SDS011;17300;50.374;8.006;2023-07-31T11:05:44;2.42;;;2.00;;
30519;SDS011;17300;50.374;8.006;2023-07-31T11:08:19;2.40;;;2.20;;
30519;SDS011;17300;50.374;8.006;2023-07-31T11:10:47;2.10;;;1.90;;
30519;SDS011;17300;50.374;8.006;2023-07-31T11:13:16;2.78;;;2.05;;
30519;SDS011;17300;50.374;8.006;2023-07-31T11:15:42;2.05;;;1.85;;
30519;SDS011;17300;50.374;8.006;2023-07-31T11:18:09;2.03;;;1.83;;
30519;SDS011;17300;50.374;8.006;2023-07-31T11:20:36;2.30;;;2.00;;
30519;SDS011;17300;50.374;8.006;2023-07-31T11:23:07;2.00;;;1.90;;
30519;SDS011;17300;50.374;8.006;2023-07-31T11:25:35;1.75;;;1.65;;
30519;SDS011;17300;50.374;8.006;2023-07-31T11:28:03;2.28;;;1.85;;
30519;SDS011;17300;50.374;8.006;2023-07-31T11:30:30;2.58;;;2.13;;
30519;SDS011;17300;50.374;8.006;2023-07-31T11:32:57;1.90;;;1.70;;
30519;SDS011;17300;50.374;8.006;2023-07-31T11:35:24;2.88;;;1.90;;
30519;SDS011;17300;50.374;8.006;2023-07-31T11:37:50;1.67;;;1.55;;
30519;SDS011;17300;50.374;8.006;2023-07-31T11:40:19;2.40;;;1.80;;
30519;SDS011;17300;50.374;8.006;2023-07-31T11:42:45;2.00;;;1.60;;
30519;SDS011;17300;50.374;8.006;2023-07-31T11:45:12;1.75;;;1.65;;
30519;SDS011;17300;50.374;8.006;2023-07-31T11:47:39;1.60;;;1.50;;
30519;SDS011;17300;50.374;8.006;2023-07-31T11:50:06;1.75;;;1.60;;
30519;SDS011;17300;50.374;8.006;2023-07-31T11:52:37;1.63;;;1.52;;
30519;SDS011;17300;50.374;8.006;2023-07-31T11:55:07;2.38;;;1.48;;
30519;SDS011;17300;50.374;8.006;2023-07-31T11:57:37;2.03;;;1.60;;
30519;SDS011;17300;50.374;8.006;2023-07-31T12:00:06;1.88;;;1.38;;
30519;SDS011;17300;50.374;8.006;2023-07-31T12:02:35;1.70;;;1.40;;
30519;SDS011;17300;50.374;8.006;2023-07-31T12:05:04;1.63;;;1.52;;
30519;SDS011;17300;50.374;8.006;2023-07-31T12:07:42;1.77;;;1.60;;
30519;SDS011;17300;50.374;8.006;2023-07-31T12:10:22;1.50;;;1.40;;
30519;SDS011;17300;50.374;8.006;2023-07-31T12:12:56;2.60;;;1.48;;
30519;SDS011;17300;50.374;8.006;2023-07-31T12:15:34;1.70;;;1.60;;
30519;SDS011;17300;50.374;8.006;2023-07-31T12:18:06;1.63;;;1.52;;
30519;SDS011;17300;50.374;8.006;2023-07-31T12:20:33;1.40;;;1.25;;
30519;SDS011;17300;50.374;8.006;2023-07-31T12:23:01;2.10;;;1.40;;
30519;SDS011;17300;50.374;8.006;2023-07-31T12:25:28;1.60;;;1.50;;
30519;SDS011;17300;50.374;8.006;2023-07-31T12:27:57;2.33;;;1.48;;
30519;SDS011;17300;50.374;8.006;2023-07-31T12:30:29;2.00;;;1.50;;
30519;SDS011;17300;50.374;8.006;2023-07-31T12:33:02;1.48;;;1.25;;
30519;SDS011;17300;50.374;8.006;2023-07-31T12:35:34;1.40;;;1.30;;
30519;SDS011;17300;50.374;8.006;2023-07-31T12:38:02;1.38;;;1.27;;
30519;SDS011;17300;50.374;8.006;2023-07-31T12:40:28;2.20;;;1.30;;
30519;SDS011;17300;50.374;8.006;2023-07-31T12:42:55;1.25;;;1.15;;
30519;SDS011;17300;50.374;8.006;2023-07-31T12:45:23;1.52;;;1.17;;
30519;SDS011;17300;50.374;8.006;2023-07-31T12:47:50;2.13;;;1.30;;
30519;SDS011;17300;50.374;8.006;2023-07-31T12:50:16;1.50;;;1.38;;
30519;SDS011;17300;50.374;8.006;2023-07-31T12:52:43;1.48;;;1.38;;
30519;SDS011;17300;50.374;8.006;2023-07-31T12:55:10;2.05;;;1.58;;
30519;SDS011;17300;50.374;8.006;2023-07-31T12:57:36;1.80;;;1.50;;
30519;SDS011;17300;50.374;8.006;2023-07-31T13:00:05;1.92;;;1.58;;
30519;SDS011;17300;50.374;8.006;2023-07-31T13:02:32;2.08;;;1.83;;
30519;SDS011;17300;50.374;8.006;2023-07-31T13:04:59;1.70;;;1.42;;
30519;SDS011;17300;50.374;8.006;2023-07-31T13:07:26;1.65;;;1.55;;
30519;SDS011;17300;50.374;8.006;2023-07-31T13:09:53;1.83;;;1.70;;
30519;SDS011;17300;50.374;8.006;2023-07-31T13:12:19;2.17;;;1.80;;
30519;SDS011;17300;50.374;8.006;2023-07-31T13:14:46;2.05;;;1.95;;
30519;SDS011;17300;50.374;8.006;2023-07-31T13:17:14;2.35;;;1.60;;
30519;SDS011;17300;50.374;8.006;2023-07-31T13:19:40;1.50;;;1.40;;
30519;SDS011;17300;50.374;8.006;2023-07-31T13:22:07;2.00;;;1.80;;
30519;SDS011;17300;50.374;8.006;2023-07-31T13:24:34;2.20;;;2.00;;
30519;SDS011;17300;50.374;8.006;2023-07-31T13:27:00;1.90;;;1.70;;
30519;SDS011;17300;50.374;8.006;2023-07-31T13:29:27;2.15;;;1.92;;
30519;SDS011;17300;50.374;8.006;2023-07-31T13:31:55;2.80;;;1.63;;
30519;SDS011;17300;50.374;8.006;2023-07-31T13:34:23;2.13;;;1.77;;
30519;SDS011;17300;50.374;8.006;2023-07-31T13:36:49;2.10;;;1.50;;
30519;SDS011;17300;50.374;8.006;2023-07-31T13:39:16;1.98;;;1.70;;
30519;SDS011;17300;50.374;8.006;2023-07-31T13:41:43;2.33;;;1.92;;
30519;SDS011;17300;50.374;8.006;2023-07-31T13:44:09;1.73;;;1.55;;
30519;SDS011;17300;50.374;8.006;2023-07-31T13:46:36;1.80;;;1.70;;
30519;SDS011;17300;50.374;8.006;2023-07-31T13:49:03;1.67;;;1.58;;
30519;SDS011;17300;50.374;8.006;2023-07-31T13:51:31;1.60;;;1.50;;
30519;SDS011;17300;50.374;8.006;2023-07-31T13:53:57;1.83;;;1.30;;
30519;SDS011;17300;50.374;8.006;2023-07-31T13:56:24;1.30;;;1.20;;
30519;SDS011;17300;50.374;8.006;2023-07-31T13:58:51;2.22;;;1.40;;
30519;SDS011;17300;50.374;8.006;2023-07-31T14:01:17;1.63;;;1.40;;
30519;SDS011;17300;50.374;8.006;2023-07-31T14:03:44;1.50;;;1.40;;
30519;SDS011;17300;50.374;8.006;2023-07-31T14:06:11;1.05;;;1.00;;
30519;SDS011;17300;50.374;8.006;2023-07-31T14:08:39;1.02;;;1.00;;
30519;SDS011;17300;50.374;8.006;2023-07-31T14:11:05;0.93;;;0.93;;
30519;SDS011;17300;50.374;8.006;2023-07-31T14:13:32;0.93;;;0.90;;
30519;SDS011;17300;50.374;8.006;2023-07-31T14:15:58;1.05;;;0.95;;
30519;SDS011;17300;50.374;8.006;2023-07-31T14:18:25;0.85;;;0.85;;
30519;SDS011;17300;50.374;8.006;2023-07-31T14:20:52;1.20;;;0.98;;
30519;SDS011;17300;50.374;8.006;2023-07-31T14:23:18;1.20;;;1.08;;
30519;SDS011;17300;50.374;8.006;2023-07-31T14:25:47;0.82;;;0.82;;
30519;SDS011;17300;50.374;8.006;2023-07-31T14:28:13;0.80;;;0.80;;
30519;SDS011;17300;50.374;8.006;2023-07-31T14:30:40;0.90;;;0.90;;
30519;SDS011;17300;50.374;8.006;2023-07-31T14:33:07;0.98;;;0.88;;
30519;SDS011;17300;50.374;8.006;2023-07-31T14:35:34;1.02;;;0.80;;
30519;SDS011;17300;50.374;8.006;2023-07-31T14:38:01;1.20;;;0.90;;
30519;SDS011;17300;50.374;8.006;2023-07-31T14:40:28;0.93;;;0.90;;
30519;SDS011;17300;50.374;8.006;2023-07-31T14:42:56;1.42;;;1.00;;
30519;SDS011;17300;50.374;8.006;2023-07-31T14:45:22;1.48;;;1.02;;
30519;SDS011;17300;50.374;8.006;2023-07-31T14:47:50;0.85;;;0.80;;
30519;SDS011;17300;50.374;8.006;2023-07-31T14:50:16;1.00;;;0.90;;
30519;SDS011;17300;50.374;8.006;2023-07-31T14:52:43;1.10;;;1.00;;
30519;SDS011;17300;50.374;8.006;2023-07-31T14:55:10;0.90;;;0.90;;